sensor_id;sensor_type;location;lat;lon;timestamp;pressure;altitude;pressure_sealevel;temperature;humidity
44697;BME280;57264;47.480;19.354;2023-03-05T00:02:06;98869.13;;;-0.34;74.18
44697;BME280;57264;47.480;19.354;2023-03-05T00:04:31;98870.22;;;-0.19;74.34
44697;BME280;57264;47.480;19.354;2023-03-05T00:06:57;98873.41;;;-0.25;74.06
44697;BME280;57264;47.480;19.354;2023-03-05T00:09:22;98869.75;;;-0.32;74.23
44697;BME280;57264;47.480;19.354;2023-03-05T00:11:48;98879.88;;;-0.21;74.55
44697;BME280;57264;47.480;19.354;2023-03-05T00:14:13;98878.34;;;-0.14;74.23
44697;BME280;57264;47.480;19.354;2023-03-05T00:16:39;98881.88;;;-0.15;74.28
44697;BME280;57264;47.480;19.354;2023-03-05T00:19:06;98869.13;;;-0.16;74.18
44697;BME280;57264;47.480;19.354;2023-03-05T00:21:35;98870.66;;;-0.23;74.49
44697;BME280;57264;47.480;19.354;2023-03-05T00:24:04;98872.00;;;-0.19;74.31
44697;BME280;57264;47.480;19.354;2023-03-05T00:26:31;98881.28;;;-0.26;74.72
44697;BME280;57264;47.480;19.354;2023-03-05T00:28:59;98875.47;;;-0.28;74.79
44697;BME280;57264;47.480;19.354;2023-03-05T00:31:27;98876.88;;;-0.16;74.62
44697;BME280;57264;47.480;19.354;2023-03-05T00:34:00;98876.03;;;-0.34;75.16
44697;BME280;57264;47.480;19.354;2023-03-05T00:36:27;98884.97;;;-0.29;75.25
44697;BME280;57264;47.480;19.354;2023-03-05T00:38:53;98867.72;;;-0.56;75.88
44697;BME280;57264;47.480;19.354;2023-03-05T00:41:19;98880.91;;;-0.59;76.22
44697;BME280;57264;47.480;19.354;2023-03-05T00:43:46;98878.53;;;-0.70;75.76
44697;BME280;57264;47.480;19.354;2023-03-05T00:46:11;98871.94;;;-0.55;76.79
44697;BME280;57264;47.480;19.354;2023-03-05T00:48:37;98866.09;;;-0.29;79.24
44697;BME280;57264;47.480;19.354;2023-03-05T00:51:03;98866.00;;;-0.37;76.52
44697;BME280;57264;47.480;19.354;2023-03-05T00:53:28;98872.56;;;-0.43;76.22
44697;BME280;57264;47.480;19.354;2023-03-05T00:55:54;98868.25;;;-0.52;76.74
44697;BME280;57264;47.480;19.354;2023-03-05T00:58:19;98874.22;;;-0.52;76.52
44697;BME280;57264;47.480;19.354;2023-03-05T01:00:45;98874.44;;;-0.63;76.75
44697;BME280;57264;47.480;19.354;2023-03-05T01:03:16;98877.22;;;-0.56;76.84
44697;BME280;57264;47.480;19.354;2023-03-05T01:05:42;98872.78;;;-0.64;76.74
44697;BME280;57264;47.480;19.354;2023-03-05T01:08:08;98877.84;;;-0.72;76.95
44697;BME280;57264;47.480;19.354;2023-03-05T01:10:33;98881.41;;;-0.73;77.49
44697;BME280;57264;47.480;19.354;2023-03-05T01:12:59;98876.16;;;-0.81;77.38
44697;BME280;57264;47.480;19.354;2023-03-05T01:15:25;98881.34;;;-0.90;78.12
44697;BME280;57264;47.480;19.354;2023-03-05T01:17:51;98867.63;;;-0.91;77.50
44697;BME280;57264;47.480;19.354;2023-03-05T01:20:18;98868.47;;;-1.00;78.04
44697;BME280;57264;47.480;19.354;2023-03-05T01:22:44;98864.00;;;-0.98;77.34
44697;BME280;57264;47.480;19.354;2023-03-05T01:25:12;98870.00;;;-1.07;78.01
44697;BME280;57264;47.480;19.354;2023-03-05T01:27:38;98876.25;;;-1.10;78.10
44697;BME280;57264;47.480;19.354;2023-03-05T01:30:05;98877.66;;;-0.88;79.13
44697;BME280;57264;47.480;19.354;2023-03-05T01:32:33;98875.72;;;-0.76;78.90
44697;BME280;57264;47.480;19.354;2023-03-05T01:35:00;98879.91;;;-0.75;78.58
44697;BME280;57264;47.480;19.354;2023-03-05T01:37:25;98884.53;;;-0.79;78.87
44697;BME280;57264;47.480;19.354;2023-03-05T01:39:51;98873.00;;;-0.75;78.81
44697;BME280;57264;47.480;19.354;2023-03-05T01:42:16;98864.41;;;-0.66;78.52
44697;BME280;57264;47.480;19.354;2023-03-05T01:45:08;98866.13;;;-0.57;78.17
44697;BME280;57264;47.480;19.354;2023-03-05T01:47:35;98868.34;;;-0.44;77.68
44697;BME280;57264;47.480;19.354;2023-03-05T01:50:01;98860.69;;;-0.36;77.52
44697;BME280;57264;47.480;19.354;2023-03-05T01:52:28;98860.13;;;-0.30;77.65
44697;BME280;57264;47.480;19.354;2023-03-05T01:55:04;98863.91;;;-0.24;76.99
44697;BME280;57264;47.480;19.354;2023-03-05T01:57:35;98856.69;;;-0.21;76.64
44697;BME280;57264;47.480;19.354;2023-03-05T02:00:10;98853.75;;;-0.08;76.51
44697;BME280;57264;47.480;19.354;2023-03-05T02:02:37;98858.16;;;-0.01;76.26
44697;BME280;57264;47.480;19.354;2023-03-05T02:05:06;98854.16;;;0.05;75.96
44697;BME280;57264;47.480;19.354;2023-03-05T02:07:33;98851.81;;;0.12;75.84
44697;BME280;57264;47.480;19.354;2023-03-05T02:10:23;98846.34;;;0.15;75.39
44697;BME280;57264;47.480;19.354;2023-03-05T02:12:51;98850.25;;;0.19;75.46
44697;BME280;57264;47.480;19.354;2023-03-05T02:15:18;98856.88;;;0.21;75.62
44697;BME280;57264;47.480;19.354;2023-03-05T02:17:46;98861.72;;;0.24;74.84
44697;BME280;57264;47.480;19.354;2023-03-05T02:20:15;98863.22;;;0.27;74.91
44697;BME280;57264;47.480;19.354;2023-03-05T02:22:42;98865.63;;;0.28;74.94
44697;BME280;57264;47.480;19.354;2023-03-05T02:25:27;98866.97;;;0.32;75.01
44697;BME280;57264;47.480;19.354;2023-03-05T02:28:00;98869.53;;;0.32;74.54
44697;BME280;57264;47.480;19.354;2023-03-05T02:30:28;98865.19;;;0.33;74.95
44697;BME280;57264;47.480;19.354;2023-03-05T02:32:54;98865.88;;;0.35;74.99
44697;BME280;57264;47.480;19.354;2023-03-05T02:35:19;98868.16;;;0.38;74.56
44697;BME280;57264;47.480;19.354;2023-03-05T02:37:45;98870.41;;;0.41;74.71
44697;BME280;57264;47.480;19.354;2023-03-05T02:40:12;98864.00;;;0.45;74.32
44697;BME280;57264;47.480;19.354;2023-03-05T02:42:37;98867.06;;;0.48;74.63
44697;BME280;57264;47.480;19.354;2023-03-05T02:45:04;98866.34;;;0.56;74.38
44697;BME280;57264;47.480;19.354;2023-03-05T02:47:30;98862.34;;;0.62;73.70
44697;BME280;57264;47.480;19.354;2023-03-05T02:49:56;98858.00;;;0.62;73.98
44697;BME280;57264;47.480;19.354;2023-03-05T02:52:22;98863.66;;;0.66;74.00
44697;BME280;57264;47.480;19.354;2023-03-05T02:54:48;98861.56;;;0.69;73.86
44697;BME280;57264;47.480;19.354;2023-03-05T02:57:14;98856.91;;;0.73;73.61
44697;BME280;57264;47.480;19.354;2023-03-05T02:59:39;98863.72;;;0.74;73.56
44697;BME280;57264;47.480;19.354;2023-03-05T03:02:05;98853.38;;;0.74;73.88
44697;BME280;57264;47.480;19.354;2023-03-05T03:04:30;98859.53;;;0.81;73.29
44697;BME280;57264;47.480;19.354;2023-03-05T03:06:56;98858.72;;;0.80;73.62
44697;BME280;57264;47.480;19.354;2023-03-05T03:09:21;98863.91;;;0.80;73.51
44697;BME280;57264;47.480;19.354;2023-03-05T03:11:47;98862.94;;;0.81;73.27
44697;BME280;57264;47.480;19.354;2023-03-05T03:14:12;98859.25;;;0.84;73.40
44697;BME280;57264;47.480;19.354;2023-03-05T03:16:38;98854.88;;;0.84;72.77
44697;BME280;57264;47.480;19.354;2023-03-05T03:19:03;98857.81;;;0.89;73.13
44697;BME280;57264;47.480;19.354;2023-03-05T03:21:29;98858.31;;;0.93;72.76
44697;BME280;57264;47.480;19.354;2023-03-05T03:23:55;98860.75;;;0.94;72.47
44697;BME280;57264;47.480;19.354;2023-03-05T03:26:21;98860.75;;;0.94;72.39
44697;BME280;57264;47.480;19.354;2023-03-05T03:28:46;98854.63;;;0.96;72.50
44697;BME280;57264;47.480;19.354;2023-03-05T03:31:12;98849.97;;;0.99;72.48
44697;BME280;57264;47.480;19.354;2023-03-05T03:33:37;98844.44;;;0.94;71.96
44697;BME280;57264;47.480;19.354;2023-03-05T03:36:04;98852.56;;;0.99;72.23
44697;BME280;57264;47.480;19.354;2023-03-05T03:38:30;98847.38;;;0.99;72.35
44697;BME280;57264;47.480;19.354;2023-03-05T03:40:55;98848.34;;;0.98;72.70
44697;BME280;57264;47.480;19.354;2023-03-05T03:43:21;98847.38;;;0.99;72.26
44697;BME280;57264;47.480;19.354;2023-03-05T03:45:46;98846.25;;;1.02;72.44
44697;BME280;57264;47.480;19.354;2023-03-05T03:48:12;98848.69;;;1.03;72.08
44697;BME280;57264;47.480;19.354;2023-03-05T03:50:41;98846.47;;;1.08;72.22
44697;BME280;57264;47.480;19.354;2023-03-05T03:53:08;98840.31;;;1.09;72.31
44697;BME280;57264;47.480;19.354;2023-03-05T03:55:34;98848.38;;;1.06;72.33
44697;BME280;57264;47.480;19.354;2023-03-05T03:57:59;98848.88;;;1.10;72.57
44697;BME280;57264;47.480;19.354;2023-03-05T04:00:25;98848.88;;;1.10;72.53
44697;BME280;57264;47.480;19.354;2023-03-05T04:02:51;98846.47;;;1.08;72.29
44697;BME280;57264;47.480;19.354;2023-03-05T04:05:16;98843.88;;;1.08;72.17
44697;BME280;57264;47.480;19.354;2023-03-05T04:07:42;98842.25;;;1.07;72.33
44697;BME280;57264;47.480;19.354;2023-03-05T04:10:10;98844.03;;;1.07;72.39
44697;BME280;57264;47.480;19.354;2023-03-05T04:12:36;98837.88;;;1.00;72.47
44697;BME280;57264;47.480;19.354;2023-03-05T04:15:02;98840.28;;;1.01;72.55
44697;BME280;57264;47.480;19.354;2023-03-05T04:17:28;98846.13;;;1.03;72.84
44697;BME280;57264;47.480;19.354;2023-03-05T04:19:53;98845.44;;;1.01;72.60
44697;BME280;57264;47.480;19.354;2023-03-05T04:22:19;98836.38;;;0.97;72.54
44697;BME280;57264;47.480;19.354;2023-03-05T04:24:45;98833.47;;;0.92;73.02
44697;BME280;57264;47.480;19.354;2023-03-05T04:27:10;98842.00;;;0.92;73.15
44697;BME280;57264;47.480;19.354;2023-03-05T04:29:36;98836.34;;;0.89;72.89
44697;BME280;57264;47.480;19.354;2023-03-05T04:32:02;98837.00;;;0.91;73.19
44697;BME280;57264;47.480;19.354;2023-03-05T04:34:27;98826.69;;;0.91;73.24
44697;BME280;57264;47.480;19.354;2023-03-05T04:36:53;98834.59;;;0.98;72.92
44697;BME280;57264;47.480;19.354;2023-03-05T04:39:18;98830.75;;;1.02;72.79
44697;BME280;57264;47.480;19.354;2023-03-05T04:41:46;98824.94;;;1.00;73.06
44697;BME280;57264;47.480;19.354;2023-03-05T04:44:12;98827.84;;;1.05;73.19
44697;BME280;57264;47.480;19.354;2023-03-05T04:46:37;98826.56;;;1.09;73.28
44697;BME280;57264;47.480;19.354;2023-03-05T04:49:03;98828.19;;;1.10;72.80
44697;BME280;57264;47.480;19.354;2023-03-05T04:51:28;98824.66;;;1.11;72.62
44697;BME280;57264;47.480;19.354;2023-03-05T04:53:54;98830.31;;;1.14;72.60
44697;BME280;57264;47.480;19.354;2023-03-05T04:56:20;98823.25;;;1.16;72.56
44697;BME280;57264;47.480;19.354;2023-03-05T04:58:45;98826.16;;;1.21;72.40
44697;BME280;57264;47.480;19.354;2023-03-05T05:01:11;98819.38;;;1.20;72.59
44697;BME280;57264;47.480;19.354;2023-03-05T05:03:40;98823.56;;;1.21;72.23
44697;BME280;57264;47.480;19.354;2023-03-05T05:06:06;98831.31;;;1.21;72.16
44697;BME280;57264;47.480;19.354;2023-03-05T05:08:32;98829.41;;;1.23;72.59
44697;BME280;57264;47.480;19.354;2023-03-05T05:11:02;98829.41;;;1.23;71.65
44697;BME280;57264;47.480;19.354;2023-03-05T05:13:29;98832.78;;;1.24;71.98
44697;BME280;57264;47.480;19.354;2023-03-05T05:15:55;98826.16;;;1.21;72.28
44697;BME280;57264;47.480;19.354;2023-03-05T05:18:21;98831.31;;;1.21;72.29
44697;BME280;57264;47.480;19.354;2023-03-05T05:20:50;98839.06;;;1.21;72.25
44697;BME280;57264;47.480;19.354;2023-03-05T05:23:16;98831.00;;;1.16;72.55
44697;BME280;57264;47.480;19.354;2023-03-05T05:25:42;98830.19;;;1.16;72.72
44697;BME280;57264;47.480;19.354;2023-03-05T05:28:08;98844.88;;;1.15;72.30
44697;BME280;57264;47.480;19.354;2023-03-05T05:30:35;98848.41;;;1.14;72.84
44697;BME280;57264;47.480;19.354;2023-03-05T05:33:00;98849.69;;;1.10;73.02
44697;BME280;57264;47.480;19.354;2023-03-05T05:35:26;98847.59;;;1.14;73.06
44697;BME280;57264;47.480;19.354;2023-03-05T05:37:52;98851.81;;;1.15;72.64
44697;BME280;57264;47.480;19.354;2023-03-05T05:40:18;98856.31;;;1.13;73.12
44697;BME280;57264;47.480;19.354;2023-03-05T05:42:44;98858.13;;;1.12;72.89
44697;BME280;57264;47.480;19.354;2023-03-05T05:45:11;98861.47;;;1.13;72.87
44697;BME280;57264;47.480;19.354;2023-03-05T05:47:36;98858.28;;;1.19;72.79
44697;BME280;57264;47.480;19.354;2023-03-05T05:50:03;98858.78;;;1.22;72.62
44697;BME280;57264;47.480;19.354;2023-03-05T05:52:29;98862.53;;;1.28;73.12
44697;BME280;57264;47.480;19.354;2023-03-05T05:54:55;98858.19;;;1.36;72.92
44697;BME280;57264;47.480;19.354;2023-03-05T05:57:20;98871.78;;;1.38;72.00
44697;BME280;57264;47.480;19.354;2023-03-05T05:59:46;98864.53;;;1.42;72.73
44697;BME280;57264;47.480;19.354;2023-03-05T06:02:11;98868.56;;;1.45;72.33
44697;BME280;57264;47.480;19.354;2023-03-05T06:04:37;98860.66;;;1.46;72.28
44697;BME280;57264;47.480;19.354;2023-03-05T06:07:04;98870.88;;;1.56;71.96
44697;BME280;57264;47.480;19.354;2023-03-05T06:09:30;98867.66;;;1.62;71.87
44697;BME280;57264;47.480;19.354;2023-03-05T06:11:55;98877.22;;;1.69;71.99
44697;BME280;57264;47.480;19.354;2023-03-05T06:14:21;98880.28;;;1.73;71.39
44697;BME280;57264;47.480;19.354;2023-03-05T06:16:46;98879.97;;;1.68;71.63
44697;BME280;57264;47.480;19.354;2023-03-05T06:19:14;98884.00;;;1.70;71.98
44697;BME280;57264;47.480;19.354;2023-03-05T06:21:40;98877.22;;;1.69;71.78
44697;BME280;57264;47.480;19.354;2023-03-05T06:24:08;98883.03;;;1.71;71.28
44697;BME280;57264;47.480;19.354;2023-03-05T06:26:34;98884.34;;;1.75;71.52
44697;BME280;57264;47.480;19.354;2023-03-05T06:29:00;98885.81;;;1.78;71.78
44697;BME280;57264;47.480;19.354;2023-03-05T06:31:27;98879.66;;;1.79;71.37
44697;BME280;57264;47.480;19.354;2023-03-05T06:33:56;98894.72;;;1.83;71.44
44697;BME280;57264;47.480;19.354;2023-03-05T06:36:22;98879.53;;;1.80;71.66
44697;BME280;57264;47.480;19.354;2023-03-05T06:38:49;98888.09;;;1.89;71.04
44697;BME280;57264;47.480;19.354;2023-03-05T06:41:18;98882.44;;;1.94;70.78
44697;BME280;57264;47.480;19.354;2023-03-05T06:43:45;98890.69;;;2.05;70.41
44697;BME280;57264;47.480;19.354;2023-03-05T06:46:17;98892.66;;;1.95;70.89
44697;BME280;57264;47.480;19.354;2023-03-05T06:48:44;98890.06;;;2.03;70.75
44697;BME280;57264;47.480;19.354;2023-03-05T06:51:25;98894.09;;;2.06;70.32
44697;BME280;57264;47.480;19.354;2023-03-05T06:53:51;98897.84;;;2.11;70.46
44697;BME280;57264;47.480;19.354;2023-03-05T06:56:18;98891.19;;;2.17;69.52
44697;BME280;57264;47.480;19.354;2023-03-05T06:58:46;98895.75;;;2.31;70.18
44697;BME280;57264;47.480;19.354;2023-03-05T07:01:13;98892.69;;;2.35;69.13
44697;BME280;57264;47.480;19.354;2023-03-05T07:03:39;98896.25;;;2.43;69.17
44697;BME280;57264;47.480;19.354;2023-03-05T07:06:08;98890.25;;;2.50;69.20
44697;BME280;57264;47.480;19.354;2023-03-05T07:08:35;98891.53;;;2.38;68.51
44697;BME280;57264;47.480;19.354;2023-03-05T07:11:01;98880.06;;;2.49;69.23
44697;BME280;57264;47.480;19.354;2023-03-05T07:13:27;98878.44;;;2.64;68.42
44697;BME280;57264;47.480;19.354;2023-03-05T07:15:53;98882.63;;;2.65;68.39
44697;BME280;57264;47.480;19.354;2023-03-05T07:18:19;98880.84;;;2.65;67.89
44697;BME280;57264;47.480;19.354;2023-03-05T07:20:45;98888.13;;;2.62;67.81
44697;BME280;57264;47.480;19.354;2023-03-05T07:23:10;98885.19;;;2.81;67.60
44697;BME280;57264;47.480;19.354;2023-03-05T07:25:37;98882.59;;;2.89;67.63
44697;BME280;57264;47.480;19.354;2023-03-05T07:28:06;98886.44;;;3.01;66.98
44697;BME280;57264;47.480;19.354;2023-03-05T07:30:33;98882.25;;;3.00;66.82
44697;BME280;57264;47.480;19.354;2023-03-05T07:32:58;98882.53;;;3.05;66.68
44697;BME280;57264;47.480;19.354;2023-03-05T07:35:24;98880.25;;;3.18;67.06
44697;BME280;57264;47.480;19.354;2023-03-05T07:37:50;98876.72;;;3.11;66.88
44697;BME280;57264;47.480;19.354;2023-03-05T07:40:16;98886.13;;;3.04;66.43
44697;BME280;57264;47.480;19.354;2023-03-05T07:42:42;98880.75;;;3.06;66.85
44697;BME280;57264;47.480;19.354;2023-03-05T07:45:08;98878.66;;;3.01;66.41
44697;BME280;57264;47.480;19.354;2023-03-05T07:47:34;98874.28;;;3.02;67.25
44697;BME280;57264;47.480;19.354;2023-03-05T07:50:00;98874.47;;;3.08;67.06
44697;BME280;57264;47.480;19.354;2023-03-05T07:52:26;98871.53;;;3.11;67.07
44697;BME280;57264;47.480;19.354;2023-03-05T07:54:51;98873.09;;;3.28;66.81
44697;BME280;57264;47.480;19.354;2023-03-05T07:57:17;98874.63;;;3.46;66.44
44697;BME280;57264;47.480;19.354;2023-03-05T07:59:43;98874.59;;;3.54;65.73
44697;BME280;57264;47.480;19.354;2023-03-05T08:02:11;98866.50;;;3.57;65.84
44697;BME280;57264;47.480;19.354;2023-03-05T08:04:37;98860.53;;;3.48;65.79
44697;BME280;57264;47.480;19.354;2023-03-05T08:07:03;98861.34;;;3.49;65.85
44697;BME280;57264;47.480;19.354;2023-03-05T08:09:29;98857.22;;;3.54;65.90
44697;BME280;57264;47.480;19.354;2023-03-05T08:11:54;98861.56;;;3.62;65.76
44697;BME280;57264;47.480;19.354;2023-03-05T08:14:20;98865.59;;;3.72;65.36
44697;BME280;57264;47.480;19.354;2023-03-05T08:16:46;98860.13;;;3.59;64.77
44697;BME280;57264;47.480;19.354;2023-03-05T08:19:17;98864.25;;;3.46;65.93
44697;BME280;57264;47.480;19.354;2023-03-05T08:21:44;98863.75;;;3.50;65.36
44697;BME280;57264;47.480;19.354;2023-03-05T08:24:10;98854.47;;;3.56;65.37
44697;BME280;57264;47.480;19.354;2023-03-05T08:26:37;98857.03;;;3.64;65.43
44697;BME280;57264;47.480;19.354;2023-03-05T08:29:05;98865.91;;;3.69;65.32
44697;BME280;57264;47.480;19.354;2023-03-05T08:31:31;98868.06;;;3.58;64.42
44697;BME280;57264;47.480;19.354;2023-03-05T08:33:58;98857.84;;;3.64;64.83
44697;BME280;57264;47.480;19.354;2023-03-05T08:36:24;98864.31;;;3.68;64.94
44697;BME280;57264;47.480;19.354;2023-03-05T08:38:50;98866.44;;;3.65;65.39
44697;BME280;57264;47.480;19.354;2023-03-05T08:41:17;98869.03;;;3.65;64.92
44697;BME280;57264;47.480;19.354;2023-03-05T08:43:43;98862.81;;;3.74;64.70
44697;BME280;57264;47.480;19.354;2023-03-05T08:46:13;98863.97;;;3.71;64.76
44697;BME280;57264;47.480;19.354;2023-03-05T08:48:39;98866.47;;;3.88;65.11
44697;BME280;57264;47.480;19.354;2023-03-05T08:51:14;98866.75;;;3.93;64.53
44697;BME280;57264;47.480;19.354;2023-03-05T08:53:41;98856.13;;;4.02;64.33
44697;BME280;57264;47.480;19.354;2023-03-05T08:56:07;98855.78;;;4.28;63.70
44697;BME280;57264;47.480;19.354;2023-03-05T08:58:33;98856.47;;;4.45;63.33
44697;BME280;57264;47.480;19.354;2023-03-05T09:00:59;98856.25;;;4.32;63.19
44697;BME280;57264;47.480;19.354;2023-03-05T09:03:25;98857.28;;;4.22;62.97
44697;BME280;57264;47.480;19.354;2023-03-05T09:05:51;98858.81;;;4.17;63.34
44697;BME280;57264;47.480;19.354;2023-03-05T09:08:17;98859.94;;;4.14;63.33
44697;BME280;57264;47.480;19.354;2023-03-05T09:10:44;98860.19;;;4.28;63.08
44697;BME280;57264;47.480;19.354;2023-03-05T09:13:11;98862.72;;;4.36;63.22
44697;BME280;57264;47.480;19.354;2023-03-05T09:15:37;98858.31;;;4.36;62.58
44697;BME280;57264;47.480;19.354;2023-03-05T09:18:03;98853.34;;;4.49;63.33
44697;BME280;57264;47.480;19.354;2023-03-05T09:20:29;98855.59;;;4.30;63.88
44697;BME280;57264;47.480;19.354;2023-03-05T09:22:55;98854.56;;;4.39;63.24
44697;BME280;57264;47.480;19.354;2023-03-05T09:25:20;98850.00;;;4.41;62.13
44697;BME280;57264;47.480;19.354;2023-03-05T09:27:47;98854.34;;;4.25;63.80
44697;BME280;57264;47.480;19.354;2023-03-05T09:30:13;98847.13;;;4.36;62.20
44697;BME280;57264;47.480;19.354;2023-03-05T09:32:39;98850.06;;;4.33;63.19
44697;BME280;57264;47.480;19.354;2023-03-05T09:35:05;98845.34;;;4.13;62.75
44697;BME280;57264;47.480;19.354;2023-03-05T09:37:32;98839.88;;;4.08;63.18
44697;BME280;57264;47.480;19.354;2023-03-05T09:39:57;98836.63;;;4.06;63.22
44697;BME280;57264;47.480;19.354;2023-03-05T09:45:22;98838.88;;;4.32;62.06
44697;BME280;57264;47.480;19.354;2023-03-05T09:50:42;98831.75;;;4.49;61.81
44697;BME280;57264;47.480;19.354;2023-03-05T09:53:36;98839.19;;;4.66;61.45
44697;BME280;57264;47.480;19.354;2023-03-05T09:56:10;98842.53;;;4.75;61.34
44697;BME280;57264;47.480;19.354;2023-03-05T09:59:03;98835.00;;;4.80;60.88
44697;BME280;57264;47.480;19.354;2023-03-05T10:01:39;98825.78;;;4.92;61.26
44697;BME280;57264;47.480;19.354;2023-03-05T10:06:58;98824.88;;;5.00;60.16
44697;BME280;57264;47.480;19.354;2023-03-05T10:12:07;98826.38;;;5.24;59.44
44697;BME280;57264;47.480;19.354;2023-03-05T10:14:38;98826.28;;;5.32;58.28
44697;BME280;57264;47.480;19.354;2023-03-05T10:26:19;98810.13;;;5.36;59.51
44697;BME280;57264;47.480;19.354;2023-03-05T10:45:40;98780.72;;;5.57;59.03
44697;BME280;57264;47.480;19.354;2023-03-05T10:51:40;98775.44;;;5.50;59.79
44697;BME280;57264;47.480;19.354;2023-03-05T10:56:36;98763.97;;;5.66;58.94
44697;BME280;57264;47.480;19.354;2023-03-05T10:59:02;98774.03;;;5.69;58.79
44697;BME280;57264;47.480;19.354;2023-03-05T11:01:29;98771.50;;;5.76;59.72
44697;BME280;57264;47.480;19.354;2023-03-05T11:04:01;98765.00;;;5.86;59.02
44697;BME280;57264;47.480;19.354;2023-03-05T11:06:43;98761.88;;;6.19;58.42
44697;BME280;57264;47.480;19.354;2023-03-05T11:17:39;98753.63;;;6.15;57.15
44697;BME280;57264;47.480;19.354;2023-03-05T11:25:55;98758.47;;;6.46;55.02
44697;BME280;57264;47.480;19.354;2023-03-05T11:28:40;98755.50;;;6.21;55.56
44697;BME280;57264;47.480;19.354;2023-03-05T11:31:23;98756.31;;;6.00;55.71
44697;BME280;57264;47.480;19.354;2023-03-05T11:33:59;98751.34;;;5.84;55.97
44697;BME280;57264;47.480;19.354;2023-03-05T11:39:14;98750.06;;;5.74;54.97
44697;BME280;57264;47.480;19.354;2023-03-05T11:46:49;98720.00;;;5.92;54.13
44697;BME280;57264;47.480;19.354;2023-03-05T11:49:22;98724.00;;;6.23;53.97
44697;BME280;57264;47.480;19.354;2023-03-05T11:52:05;98723.38;;;6.42;54.10
44697;BME280;57264;47.480;19.354;2023-03-05T11:55:02;98717.97;;;6.50;53.21
44697;BME280;57264;47.480;19.354;2023-03-05T11:57:34;98717.28;;;6.35;52.98
44697;BME280;57264;47.480;19.354;2023-03-05T12:00:06;98712.69;;;6.37;53.92
44697;BME280;57264;47.480;19.354;2023-03-05T12:02:37;98707.97;;;6.19;53.28
44697;BME280;57264;47.480;19.354;2023-03-05T12:05:05;98701.50;;;5.66;54.33
44697;BME280;57264;47.480;19.354;2023-03-05T12:07:38;98710.06;;;5.60;55.23
44697;BME280;57264;47.480;19.354;2023-03-05T12:10:05;98704.84;;;5.60;55.54
44697;BME280;57264;47.480;19.354;2023-03-05T12:18:04;98679.81;;;5.59;55.06
44697;BME280;57264;47.480;19.354;2023-03-05T12:23:15;98688.78;;;5.78;54.79
44697;BME280;57264;47.480;19.354;2023-03-05T12:25:50;98686.72;;;5.94;54.20
44697;BME280;57264;47.480;19.354;2023-03-05T12:33:40;98678.56;;;5.76;54.81
44697;BME280;57264;47.480;19.354;2023-03-05T12:38:42;98673.94;;;5.78;53.79
44697;BME280;57264;47.480;19.354;2023-03-05T12:46:34;98659.31;;;5.98;52.94
44697;BME280;57264;47.480;19.354;2023-03-05T12:51:47;98653.63;;;5.88;53.68
44697;BME280;57264;47.480;19.354;2023-03-05T12:54:35;98658.84;;;5.67;54.02
44697;BME280;57264;47.480;19.354;2023-03-05T12:57:23;98649.09;;;5.97;54.05
44697;BME280;57264;47.480;19.354;2023-03-05T13:00:00;98648.53;;;6.01;53.68
44697;BME280;57264;47.480;19.354;2023-03-05T13:02:36;98640.22;;;5.91;53.47
44697;BME280;57264;47.480;19.354;2023-03-05T13:05:13;98640.50;;;6.03;51.97
44697;BME280;57264;47.480;19.354;2023-03-05T13:07:41;98626.69;;;6.37;52.25
44697;BME280;57264;47.480;19.354;2023-03-05T13:10:23;98627.84;;;6.34;52.29
44697;BME280;57264;47.480;19.354;2023-03-05T13:12:51;98629.69;;;6.06;51.86
44697;BME280;57264;47.480;19.354;2023-03-05T13:15:18;98641.59;;;5.87;52.02
44697;BME280;57264;47.480;19.354;2023-03-05T13:17:59;98640.66;;;5.95;51.31
44697;BME280;57264;47.480;19.354;2023-03-05T13:20:38;98637.25;;;5.94;51.77
44697;BME280;57264;47.480;19.354;2023-03-05T13:23:18;98634.81;;;6.21;52.19
44697;BME280;57264;47.480;19.354;2023-03-05T13:28:24;98640.09;;;5.99;50.63
44697;BME280;57264;47.480;19.354;2023-03-05T13:31:01;98634.06;;;5.99;51.30
44697;BME280;57264;47.480;19.354;2023-03-05T13:33:34;98634.88;;;5.78;51.46
44697;BME280;57264;47.480;19.354;2023-03-05T13:36:00;98627.19;;;5.63;52.32
44697;BME280;57264;47.480;19.354;2023-03-05T13:38:38;98636.59;;;5.64;52.23
44697;BME280;57264;47.480;19.354;2023-03-05T13:46:09;98636.00;;;5.20;52.50
44697;BME280;57264;47.480;19.354;2023-03-05T13:48:34;98643.19;;;4.97;52.98
44697;BME280;57264;47.480;19.354;2023-03-05T13:51:00;98631.66;;;4.85;53.23
44697;BME280;57264;47.480;19.354;2023-03-05T13:53:32;98645.31;;;4.72;53.69
44697;BME280;57264;47.480;19.354;2023-03-05T13:56:06;98638.66;;;4.69;54.65
44697;BME280;57264;47.480;19.354;2023-03-05T13:58:52;98627.66;;;4.67;55.08
44697;BME280;57264;47.480;19.354;2023-03-05T14:03:54;98632.88;;;4.53;54.81
44697;BME280;57264;47.480;19.354;2023-03-05T14:06:25;98630.41;;;4.45;54.63
44697;BME280;57264;47.480;19.354;2023-03-05T14:09:06;98631.00;;;4.47;55.18
44697;BME280;57264;47.480;19.354;2023-03-05T14:11:34;98627.34;;;4.41;55.15
44697;BME280;57264;47.480;19.354;2023-03-05T14:14:15;98624.47;;;4.36;55.06
44697;BME280;57264;47.480;19.354;2023-03-05T14:16:42;98621.00;;;4.29;54.70
44697;BME280;57264;47.480;19.354;2023-03-05T14:21:55;98626.47;;;4.05;55.23
44697;BME280;57264;47.480;19.354;2023-03-05T14:24:25;98627.78;;;3.86;56.33
44697;BME280;57264;47.480;19.354;2023-03-05T14:27:00;98628.44;;;3.88;56.00
44697;BME280;57264;47.480;19.354;2023-03-05T14:29:30;98625.53;;;3.83;56.43
44697;BME280;57264;47.480;19.354;2023-03-05T14:31:59;98624.50;;;4.07;55.65
44697;BME280;57264;47.480;19.354;2023-03-05T14:34:30;98625.47;;;3.91;56.09
44697;BME280;57264;47.480;19.354;2023-03-05T14:37:04;98618.72;;;3.67;56.71
44697;BME280;57264;47.480;19.354;2023-03-05T14:39:53;98618.72;;;3.67;56.86
44697;BME280;57264;47.480;19.354;2023-03-05T14:42:32;98619.59;;;3.60;57.00
44697;BME280;57264;47.480;19.354;2023-03-05T14:45:22;98604.13;;;3.66;56.25
44697;BME280;57264;47.480;19.354;2023-03-05T14:47:52;98615.31;;;3.52;56.63